Terminal Aerodrome Forecast
Issued by NWS Duluth, MN

Home | Current Version | Previous Version | Text Only | Print | Product List | Glossary On
Versions: 1 2 3 4 5 6 7 8 9 10 11 12 13 14 15 16 17 18 19 20 21 22
000
FTUS43 KDLH 172300 RRA
TAFDLH
TAF
KDLH 172344Z 1800/1824 28013G20KT P6SM SKC
     FM180100 29012KT P6SM SKC
     FM180300 33012KT P6SM SKC
     FM180800 08010KT P6SM SKC
     FM181400 08014G20KT P6SM SKC=

USA.gov is the U.S. government's official web portal to all federal, state and local government web resources and services.